JLY1615 SBSP-SBRJ
Flight info
| Callsign | JLY1615 |
|---|---|
| Flight time | 0h 59m |
| Altitude | 25000 |
| Route | NIBRU UZ171 KEVUN |
| Aircraft | A320/M-SDE3FGHIRWY/LB1 |
Departure
| Time | 2026-05-03 22:58 |
|---|---|
| Airport | Congonhas–Deputado Freitas Nobre Airport (SBSP) |
Arrival
| Time | 2026-05-03 23:58 |
|---|---|
| Airport | Santos Dumont Airport (SBRJ) |
| Time | Latitude | Longitude | Altitude | Speed | Heading |
|---|---|---|---|---|---|
| 2026-05-03 22:33 | -23.62603 | -46.65902 | 2615 ft | 0 kts | 237° |
| 2026-05-03 22:46 | -23.62596 | -46.65888 | 2615 ft | 4 kts | 248° |
| 2026-05-03 22:46 | -23.62592 | -46.65862 | 2616 ft | 4 kts | 294° |
| 2026-05-03 22:46 | -23.62602 | -46.65848 | 2616 ft | 0 kts | 328° |
| 2026-05-03 22:51 | -23.62577 | -46.65849 | 2615 ft | 8 kts | 360° |
| 2026-05-03 22:51 | -23.62514 | -46.65860 | 2613 ft | 10 kts | 333° |
| 2026-05-03 22:51 | -23.62451 | -46.65904 | 2611 ft | 11 kts | 327° |
| 2026-05-03 22:51 | -23.62380 | -46.65953 | 2608 ft | 13 kts | 328° |
| 2026-05-03 22:52 | -23.62302 | -46.66006 | 2606 ft | 13 kts | 328° |
| 2026-05-03 22:52 | -23.62228 | -46.66051 | 2603 ft | 11 kts | 336° |
| 2026-05-03 22:52 | -23.62152 | -46.66101 | 2589 ft | 14 kts | 328° |
| 2026-05-03 22:52 | -23.62131 | -46.66115 | 2590 ft | 0 kts | 328° |
| 2026-05-03 22:54 | -23.62120 | -46.66123 | 2593 ft | 10 kts | 328° |
| 2026-05-03 22:54 | -23.62047 | -46.66099 | 2595 ft | 12 kts | 82° |
| 2026-05-03 22:55 | -23.62093 | -46.66044 | 2598 ft | 0 kts | 148° |
| 2026-05-03 22:58 | -23.62258 | -46.65929 | 2605 ft | 67 kts | 147° |
| 2026-05-03 22:58 | -23.62848 | -46.65521 | 2628 ft | 131 kts | 147° |
| 2026-05-03 22:58 | -23.63716 | -46.64919 | 3009 ft | 150 kts | 147° |
| 2026-05-03 22:58 | -23.64563 | -46.64268 | 3874 ft | 148 kts | 133° |
| 2026-05-03 22:59 | -23.65074 | -46.63278 | 4487 ft | 158 kts | 116° |
| 2026-05-03 22:59 | -23.65607 | -46.62143 | 4794 ft | 178 kts | 118° |
| 2026-05-03 22:59 | -23.66236 | -46.60880 | 5080 ft | 202 kts | 119° |
| 2026-05-03 22:59 | -23.66955 | -46.59454 | 5396 ft | 227 kts | 119° |
| 2026-05-03 23:00 | -23.67760 | -46.57859 | 5863 ft | 252 kts | 118° |
| 2026-05-03 23:00 | -23.68632 | -46.56135 | 6577 ft | 265 kts | 118° |
| 2026-05-03 23:00 | -23.69539 | -46.54339 | 7362 ft | 275 kts | 118° |
| 2026-05-03 23:00 | -23.70474 | -46.52484 | 8147 ft | 283 kts | 118° |
| 2026-05-03 23:01 | -23.71360 | -46.50527 | 8958 ft | 292 kts | 109° |
| 2026-05-03 23:01 | -23.71787 | -46.48340 | 9746 ft | 300 kts | 93° |
| 2026-05-03 23:01 | -23.71654 | -46.46079 | 10513 ft | 307 kts | 80° |
| 2026-05-03 23:01 | -23.71306 | -46.43691 | 10843 ft | 331 kts | 80° |
| 2026-05-03 23:02 | -23.70932 | -46.41115 | 11111 ft | 355 kts | 80° |
| 2026-05-03 23:02 | -23.70534 | -46.38357 | 11309 ft | 379 kts | 81° |
| 2026-05-03 23:02 | -23.70117 | -46.35437 | 11557 ft | 398 kts | 81° |
| 2026-05-03 23:02 | -23.69690 | -46.32416 | 12120 ft | 406 kts | 81° |
| 2026-05-03 23:03 | -23.69258 | -46.29359 | 12795 ft | 410 kts | 81° |
| 2026-05-03 23:03 | -23.68820 | -46.26273 | 13457 ft | 414 kts | 81° |
| 2026-05-03 23:03 | -23.68376 | -46.23149 | 14108 ft | 418 kts | 81° |
| 2026-05-03 23:03 | -23.67932 | -46.20032 | 14664 ft | 423 kts | 81° |
| 2026-05-03 23:04 | -23.67469 | -46.16805 | 15197 ft | 428 kts | 81° |
| 2026-05-03 23:04 | -23.67002 | -46.13580 | 15709 ft | 434 kts | 81° |
| 2026-05-03 23:04 | -23.66529 | -46.10346 | 16210 ft | 439 kts | 81° |
| 2026-05-03 23:04 | -23.66207 | -46.08111 | 16553 ft | 443 kts | 81° |
| 2026-05-03 23:05 | -23.65575 | -46.03683 | 17192 ft | 450 kts | 81° |
| 2026-05-03 23:05 | -23.65250 | -46.01393 | 17507 ft | 453 kts | 81° |
| 2026-05-03 23:05 | -23.64766 | -45.98014 | 17956 ft | 458 kts | 81° |
| 2026-05-03 23:05 | -23.64268 | -45.94557 | 18383 ft | 464 kts | 81° |
| 2026-05-03 23:06 | -23.63766 | -45.91070 | 18774 ft | 468 kts | 81° |
| 2026-05-03 23:06 | -23.63254 | -45.87541 | 19156 ft | 472 kts | 81° |
| 2026-05-03 23:06 | -23.62736 | -45.83984 | 19534 ft | 476 kts | 81° |
| 2026-05-03 23:06 | -23.62213 | -45.80397 | 19904 ft | 480 kts | 81° |
| 2026-05-03 23:07 | -23.61688 | -45.76792 | 20268 ft | 484 kts | 81° |
| 2026-05-03 23:07 | -23.61161 | -45.73155 | 20625 ft | 487 kts | 81° |
| 2026-05-03 23:07 | -23.60627 | -45.69485 | 20988 ft | 491 kts | 81° |
| 2026-05-03 23:07 | -23.60089 | -45.65790 | 21305 ft | 495 kts | 81° |
| 2026-05-03 23:08 | -23.59554 | -45.62123 | 21638 ft | 498 kts | 81° |
| 2026-05-03 23:08 | -23.59005 | -45.58372 | 21965 ft | 501 kts | 81° |
| 2026-05-03 23:08 | -23.58451 | -45.54603 | 22273 ft | 505 kts | 81° |
| 2026-05-03 23:08 | -23.57891 | -45.50809 | 22587 ft | 508 kts | 81° |
| 2026-05-03 23:09 | -23.57324 | -45.46995 | 22893 ft | 511 kts | 80° |
| 2026-05-03 23:09 | -23.56673 | -45.43177 | 23202 ft | 514 kts | 78° |
| 2026-05-03 23:09 | -23.55910 | -45.39365 | 23495 ft | 517 kts | 76° |
| 2026-05-03 23:09 | -23.55061 | -45.35536 | 23781 ft | 520 kts | 75° |
| 2026-05-03 23:10 | -23.54173 | -45.31704 | 24036 ft | 522 kts | 75° |
| 2026-05-03 23:10 | -23.53295 | -45.27906 | 24284 ft | 525 kts | 75° |
| 2026-05-03 23:10 | -23.52428 | -45.24038 | 24571 ft | 526 kts | 75° |
| 2026-05-03 23:10 | -23.51586 | -45.20147 | 24795 ft | 529 kts | 76° |
| 2026-05-03 23:11 | -23.50762 | -45.16233 | 25022 ft | 531 kts | 76° |
| 2026-05-03 23:11 | -23.49944 | -45.12296 | 25188 ft | 534 kts | 76° |
| 2026-05-03 23:11 | -23.49120 | -45.08330 | 25244 ft | 538 kts | 76° |
| 2026-05-03 23:11 | -23.48285 | -45.04346 | 25247 ft | 541 kts | 76° |
| 2026-05-03 23:12 | -23.47432 | -45.00344 | 25244 ft | 542 kts | 76° |
| 2026-05-03 23:12 | -23.46569 | -44.96345 | 25248 ft | 542 kts | 76° |
| 2026-05-03 23:12 | -23.45698 | -44.92357 | 25243 ft | 541 kts | 75° |
| 2026-05-03 23:12 | -23.44814 | -44.88372 | 25249 ft | 540 kts | 75° |
| 2026-05-03 23:13 | -23.43924 | -44.84396 | 25243 ft | 540 kts | 75° |
| 2026-05-03 23:13 | -23.43035 | -44.80426 | 25257 ft | 540 kts | 75° |
| 2026-05-03 23:13 | -23.42147 | -44.76446 | 25246 ft | 540 kts | 75° |
| 2026-05-03 23:13 | -23.41268 | -44.72514 | 25242 ft | 540 kts | 75° |
| 2026-05-03 23:14 | -23.40380 | -44.68545 | 25233 ft | 540 kts | 75° |
| 2026-05-03 23:14 | -23.39491 | -44.64570 | 25231 ft | 540 kts | 75° |
| 2026-05-03 23:14 | -23.38602 | -44.60601 | 25237 ft | 540 kts | 75° |
| 2026-05-03 23:14 | -23.37724 | -44.56681 | 25211 ft | 520 kts | 75° |
| 2026-05-03 23:15 | -23.36899 | -44.52982 | 24962 ft | 487 kts | 75° |
| 2026-05-03 23:15 | -23.36123 | -44.49509 | 24829 ft | 458 kts | 75° |
| 2026-05-03 23:15 | -23.35388 | -44.46221 | 24525 ft | 437 kts | 75° |
| 2026-05-03 23:15 | -23.34653 | -44.43055 | 23922 ft | 426 kts | 71° |
| 2026-05-03 23:16 | -23.33584 | -44.40090 | 23176 ft | 417 kts | 62° |
| 2026-05-03 23:16 | -23.32362 | -44.37251 | 22399 ft | 412 kts | 63° |
| 2026-05-03 23:16 | -23.31173 | -44.34492 | 21697 ft | 405 kts | 63° |
| 2026-05-03 23:16 | -23.29968 | -44.31703 | 20996 ft | 399 kts | 63° |
| 2026-05-03 23:17 | -23.28812 | -44.29029 | 20331 ft | 393 kts | 63° |
| 2026-05-03 23:17 | -23.27662 | -44.26357 | 19682 ft | 386 kts | 63° |
| 2026-05-03 23:17 | -23.26532 | -44.23732 | 19044 ft | 380 kts | 63° |
| 2026-05-03 23:17 | -23.25418 | -44.21145 | 18416 ft | 375 kts | 63° |
| 2026-05-03 23:18 | -23.24322 | -44.18597 | 17719 ft | 369 kts | 63° |
| 2026-05-03 23:18 | -23.23247 | -44.16095 | 17073 ft | 362 kts | 63° |
| 2026-05-03 23:18 | -23.22189 | -44.13637 | 16449 ft | 355 kts | 63° |
| 2026-05-03 23:18 | -23.21149 | -44.11228 | 15837 ft | 349 kts | 63° |
| 2026-05-03 23:19 | -23.20125 | -44.08862 | 15249 ft | 343 kts | 64° |
| 2026-05-03 23:19 | -23.19108 | -44.06542 | 14676 ft | 337 kts | 63° |
| 2026-05-03 23:19 | -23.18082 | -44.04285 | 14112 ft | 331 kts | 63° |
| 2026-05-03 23:19 | -23.17072 | -44.02105 | 13875 ft | 312 kts | 62° |
| 2026-05-03 23:20 | -23.16121 | -44.00065 | 13725 ft | 293 kts | 62° |
| 2026-05-03 23:20 | -23.15227 | -43.98118 | 13417 ft | 286 kts | 63° |
| 2026-05-03 23:20 | -23.14384 | -43.96183 | 13126 ft | 280 kts | 64° |
| 2026-05-03 23:20 | -23.13569 | -43.94267 | 12612 ft | 278 kts | 64° |
| 2026-05-03 23:21 | -23.12767 | -43.92367 | 12114 ft | 275 kts | 64° |
| 2026-05-03 23:21 | -23.11974 | -43.90494 | 11637 ft | 271 kts | 64° |
| 2026-05-03 23:21 | -23.11195 | -43.88664 | 11146 ft | 268 kts | 64° |
| 2026-05-03 23:21 | -23.10407 | -43.86813 | 10670 ft | 265 kts | 63° |
| 2026-05-03 23:22 | -23.08886 | -43.83252 | 9676 ft | 258 kts | 63° |
| 2026-05-03 23:22 | -23.08133 | -43.81493 | 9138 ft | 255 kts | 63° |
| 2026-05-03 23:22 | -23.07388 | -43.79753 | 8987 ft | 256 kts | 63° |
| 2026-05-03 23:23 | -23.06635 | -43.77995 | 8848 ft | 257 kts | 63° |
| 2026-05-03 23:23 | -23.05877 | -43.76231 | 8711 ft | 259 kts | 63° |
| 2026-05-03 23:23 | -23.05115 | -43.74464 | 8572 ft | 257 kts | 64° |
| 2026-05-03 23:23 | -23.04361 | -43.72708 | 8419 ft | 256 kts | 64° |
| 2026-05-03 23:24 | -23.03607 | -43.70951 | 8298 ft | 256 kts | 64° |
| 2026-05-03 23:24 | -23.02854 | -43.69195 | 8134 ft | 257 kts | 64° |
| 2026-05-03 23:24 | -23.02096 | -43.67451 | 7882 ft | 255 kts | 64° |
| 2026-05-03 23:24 | -23.01332 | -43.65714 | 7643 ft | 255 kts | 64° |
| 2026-05-03 23:25 | -23.00571 | -43.63985 | 7410 ft | 253 kts | 64° |
| 2026-05-03 23:25 | -22.99815 | -43.62263 | 7096 ft | 254 kts | 66° |
| 2026-05-03 23:25 | -22.99060 | -43.60543 | 6850 ft | 251 kts | 66° |
| 2026-05-03 23:25 | -22.98325 | -43.58869 | 6698 ft | 240 kts | 66° |
| 2026-05-03 23:26 | -22.97621 | -43.57268 | 6587 ft | 229 kts | 66° |
| 2026-05-03 23:26 | -22.96951 | -43.55745 | 6438 ft | 219 kts | 66° |
| 2026-05-03 23:26 | -22.96300 | -43.54271 | 6280 ft | 216 kts | 66° |
| 2026-05-03 23:26 | -22.95652 | -43.52803 | 6142 ft | 216 kts | 66° |
| 2026-05-03 23:27 | -22.95015 | -43.51357 | 6011 ft | 214 kts | 67° |
| 2026-05-03 23:27 | -22.94369 | -43.49874 | 5811 ft | 215 kts | 68° |
| 2026-05-03 23:27 | -22.93752 | -43.48422 | 5575 ft | 215 kts | 67° |
| 2026-05-03 23:27 | -22.93123 | -43.46932 | 5332 ft | 214 kts | 67° |
| 2026-05-03 23:28 | -22.92516 | -43.45489 | 5104 ft | 212 kts | 67° |
| 2026-05-03 23:28 | -22.91905 | -43.44038 | 4872 ft | 210 kts | 67° |
| 2026-05-03 23:28 | -22.91298 | -43.42602 | 4656 ft | 209 kts | 67° |
| 2026-05-03 23:28 | -22.90697 | -43.41181 | 4501 ft | 203 kts | 67° |
| 2026-05-03 23:29 | -22.90117 | -43.39807 | 4295 ft | 199 kts | 68° |
| 2026-05-03 23:29 | -22.89552 | -43.38473 | 4134 ft | 191 kts | 68° |
| 2026-05-03 23:29 | -22.89004 | -43.37180 | 3949 ft | 187 kts | 68° |
| 2026-05-03 23:29 | -22.88519 | -43.35876 | 3799 ft | 185 kts | 79° |
| 2026-05-03 23:30 | -22.88312 | -43.34515 | 3642 ft | 181 kts | 91° |
| 2026-05-03 23:30 | -22.88342 | -43.33162 | 3479 ft | 179 kts | 97° |
| 2026-05-03 23:30 | -22.88388 | -43.31849 | 3367 ft | 171 kts | 97° |
| 2026-05-03 23:30 | -22.88430 | -43.30563 | 3175 ft | 169 kts | 96° |
| 2026-05-03 23:31 | -22.88473 | -43.29292 | 3019 ft | 169 kts | 95° |
| 2026-05-03 23:31 | -22.88517 | -43.28022 | 2865 ft | 168 kts | 95° |
| 2026-05-03 23:31 | -22.88573 | -43.26758 | 2750 ft | 167 kts | 101° |
| 2026-05-03 23:31 | -22.88876 | -43.25579 | 2597 ft | 160 kts | 116° |
| 2026-05-03 23:32 | -22.89298 | -43.24457 | 2360 ft | 160 kts | 115° |
| 2026-05-03 23:32 | -22.89712 | -43.23343 | 2146 ft | 158 kts | 115° |
| 2026-05-03 23:32 | -22.90112 | -43.22268 | 1944 ft | 153 kts | 115° |
| 2026-05-03 23:32 | -22.90520 | -43.21235 | 1751 ft | 143 kts | 122° |
| 2026-05-03 23:33 | -22.91108 | -43.20406 | 1586 ft | 137 kts | 139° |
| 2026-05-03 23:33 | -22.91871 | -43.19808 | 1409 ft | 135 kts | 154° |
| 2026-05-03 23:33 | -22.92734 | -43.19468 | 1245 ft | 129 kts | 170° |
| 2026-05-03 23:33 | -22.93611 | -43.19328 | 1085 ft | 129 kts | 165° |
| 2026-05-03 23:34 | -22.94362 | -43.18798 | 925 ft | 131 kts | 136° |
| 2026-05-03 23:34 | -22.94903 | -43.18000 | 816 ft | 136 kts | 109° |
| 2026-05-03 23:34 | -22.94720 | -43.17005 | 614 ft | 141 kts | 55° |
| 2026-05-03 23:34 | -22.93982 | -43.16344 | 479 ft | 138 kts | 21° |
| 2026-05-03 23:35 | -22.93042 | -43.16165 | 297 ft | 137 kts | 356° |
| 2026-05-03 23:35 | -22.92102 | -43.16214 | 135 ft | 135 kts | 354° |
| 2026-05-03 23:35 | -22.91189 | -43.16284 | 20 ft | 120 kts | 2° |
| 2026-05-03 23:35 | -22.90352 | -43.16339 | 173 ft | 135 kts | 354° |
| 2026-05-03 23:36 | -22.89365 | -43.16315 | 924 ft | 142 kts | 5° |
| 2026-05-03 23:36 | -22.88414 | -43.16025 | 1777 ft | 145 kts | 30° |
| 2026-05-03 23:36 | -22.87609 | -43.15339 | 2241 ft | 158 kts | 49° |
| 2026-05-03 23:36 | -22.86898 | -43.14336 | 2495 ft | 178 kts | 62° |
| 2026-05-03 23:37 | -22.86423 | -43.13034 | 2743 ft | 200 kts | 81° |
| 2026-05-03 23:37 | -22.86384 | -43.11480 | 3281 ft | 210 kts | 102° |
| 2026-05-03 23:37 | -22.86870 | -43.09994 | 4104 ft | 209 kts | 123° |
| 2026-05-03 23:37 | -22.87650 | -43.08657 | 4988 ft | 213 kts | 124° |
| 2026-05-03 23:38 | -22.88457 | -43.07286 | 5348 ft | 215 kts | 124° |
| 2026-05-03 23:38 | -22.89260 | -43.05916 | 5468 ft | 215 kts | 124° |
| 2026-05-03 23:38 | -22.90058 | -43.04551 | 5491 ft | 214 kts | 124° |
| 2026-05-03 23:38 | -22.90854 | -43.03189 | 5495 ft | 214 kts | 124° |
| 2026-05-03 23:39 | -22.91658 | -43.01814 | 5481 ft | 216 kts | 124° |
| 2026-05-03 23:39 | -22.92462 | -43.00438 | 5486 ft | 216 kts | 124° |
| 2026-05-03 23:39 | -22.93264 | -42.99064 | 5488 ft | 215 kts | 124° |
| 2026-05-03 23:39 | -22.94061 | -42.97699 | 5487 ft | 215 kts | 124° |
| 2026-05-03 23:40 | -22.94862 | -42.96326 | 5493 ft | 215 kts | 124° |
| 2026-05-03 23:40 | -22.95663 | -42.94955 | 5491 ft | 215 kts | 124° |
| 2026-05-03 23:40 | -22.96467 | -42.93578 | 5489 ft | 216 kts | 124° |
| 2026-05-03 23:40 | -22.97270 | -42.92203 | 5488 ft | 216 kts | 124° |
| 2026-05-03 23:41 | -22.98072 | -42.90828 | 5487 ft | 215 kts | 124° |
| 2026-05-03 23:41 | -22.98877 | -42.89459 | 5488 ft | 215 kts | 124° |
| 2026-05-03 23:41 | -22.99681 | -42.88088 | 5488 ft | 215 kts | 124° |
| 2026-05-03 23:41 | -23.00482 | -42.86711 | 5491 ft | 215 kts | 124° |
| 2026-05-03 23:42 | -23.01269 | -42.85357 | 5486 ft | 215 kts | 124° |
| 2026-05-03 23:42 | -23.02068 | -42.83982 | 5487 ft | 215 kts | 124° |
| 2026-05-03 23:42 | -23.02869 | -42.82609 | 5485 ft | 215 kts | 124° |
| 2026-05-03 23:42 | -23.03680 | -42.81241 | 5484 ft | 216 kts | 129° |
| 2026-05-03 23:43 | -23.04843 | -42.80270 | 5487 ft | 212 kts | 164° |
| 2026-05-03 23:43 | -23.06299 | -42.80078 | 5496 ft | 212 kts | 179° |
| 2026-05-03 23:43 | -23.07773 | -42.79974 | 5489 ft | 213 kts | 173° |
| 2026-05-03 23:43 | -23.09132 | -42.79340 | 5491 ft | 217 kts | 143° |
| 2026-05-03 23:44 | -23.10089 | -42.78063 | 5490 ft | 222 kts | 120° |
| 2026-05-03 23:44 | -23.10483 | -42.76440 | 5488 ft | 227 kts | 93° |
| 2026-05-03 23:44 | -23.10165 | -42.74771 | 5487 ft | 228 kts | 61° |
| 2026-05-03 23:44 | -23.09038 | -42.73593 | 5489 ft | 230 kts | 23° |
| 2026-05-03 23:45 | -23.07487 | -42.73339 | 5487 ft | 227 kts | 346° |
| 2026-05-03 23:45 | -23.06099 | -42.74067 | 5487 ft | 223 kts | 315° |
| 2026-05-03 23:45 | -23.05213 | -42.75415 | 5491 ft | 220 kts | 290° |
| 2026-05-03 23:45 | -23.04704 | -42.76980 | 5489 ft | 219 kts | 285° |
| 2026-05-03 23:46 | -23.04271 | -42.78568 | 5491 ft | 220 kts | 283° |
| 2026-05-03 23:46 | -23.03853 | -42.80161 | 5489 ft | 219 kts | 283° |
| 2026-05-03 23:46 | -23.03474 | -42.81762 | 5489 ft | 218 kts | 273° |
| 2026-05-03 23:46 | -23.03682 | -42.83356 | 5491 ft | 214 kts | 243° |
| 2026-05-03 23:47 | -23.04589 | -42.84595 | 5485 ft | 209 kts | 214° |
| 2026-05-03 23:47 | -23.05901 | -42.85155 | 5484 ft | 208 kts | 186° |
| 2026-05-03 23:47 | -23.07332 | -42.84928 | 5485 ft | 213 kts | 156° |
| 2026-05-03 23:47 | -23.08484 | -42.83922 | 5487 ft | 217 kts | 128° |
| 2026-05-03 23:48 | -23.09370 | -42.82594 | 5476 ft | 216 kts | 140° |
| 2026-05-03 23:48 | -23.10641 | -42.81789 | 5487 ft | 212 kts | 167° |
| 2026-05-03 23:48 | -23.12091 | -42.81741 | 5487 ft | 211 kts | 195° |
| 2026-05-03 23:48 | -23.13368 | -42.82454 | 5485 ft | 207 kts | 223° |
| 2026-05-03 23:49 | -23.14168 | -42.83746 | 5490 ft | 209 kts | 250° |
| 2026-05-03 23:49 | -23.14299 | -42.85317 | 5409 ft | 212 kts | 276° |
| 2026-05-03 23:49 | -23.14008 | -42.86890 | 5094 ft | 213 kts | 279° |
| 2026-05-03 23:49 | -23.13699 | -42.88468 | 4745 ft | 214 kts | 280° |
| 2026-05-03 23:50 | -23.13388 | -42.90055 | 4424 ft | 215 kts | 279° |
| 2026-05-03 23:50 | -23.13183 | -42.91107 | 4205 ft | 215 kts | 279° |
| 2026-05-03 23:50 | -23.12771 | -42.93236 | 3813 ft | 216 kts | 278° |
| 2026-05-03 23:50 | -23.12463 | -42.94825 | 3582 ft | 214 kts | 279° |
| 2026-05-03 23:51 | -23.12154 | -42.96419 | 3507 ft | 217 kts | 278° |
| 2026-05-03 23:51 | -23.11845 | -42.98014 | 3514 ft | 211 kts | 279° |
| 2026-05-03 23:51 | -23.11553 | -42.99525 | 3509 ft | 199 kts | 278° |
| 2026-05-03 23:51 | -23.11270 | -43.00984 | 3513 ft | 196 kts | 278° |
| 2026-05-03 23:52 | -23.10992 | -43.02429 | 3516 ft | 195 kts | 278° |
| 2026-05-03 23:52 | -23.10807 | -43.03388 | 3516 ft | 196 kts | 278° |
| 2026-05-03 23:52 | -23.10527 | -43.04835 | 3516 ft | 195 kts | 279° |
| 2026-05-03 23:52 | -23.10247 | -43.06282 | 3520 ft | 196 kts | 278° |
| 2026-05-03 23:53 | -23.09967 | -43.07725 | 3519 ft | 196 kts | 279° |
| 2026-05-03 23:53 | -23.09679 | -43.09171 | 3515 ft | 196 kts | 283° |
| 2026-05-03 23:53 | -23.09022 | -43.10469 | 3520 ft | 200 kts | 313° |
| 2026-05-03 23:53 | -23.07842 | -43.11276 | 3391 ft | 204 kts | 343° |
| 2026-05-03 23:54 | -23.06444 | -43.11546 | 3133 ft | 205 kts | 352° |
| 2026-05-03 23:54 | -23.05042 | -43.11784 | 2861 ft | 200 kts | 351° |
| 2026-05-03 23:54 | -23.03706 | -43.12016 | 2569 ft | 189 kts | 350° |
| 2026-05-03 23:54 | -23.02443 | -43.12237 | 2301 ft | 177 kts | 351° |
| 2026-05-03 23:55 | -23.01292 | -43.12439 | 2081 ft | 163 kts | 351° |
| 2026-05-03 23:55 | -23.00215 | -43.12633 | 1919 ft | 154 kts | 350° |
| 2026-05-03 23:55 | -22.99175 | -43.12824 | 1707 ft | 151 kts | 349° |
| 2026-05-03 23:55 | -22.98150 | -43.13013 | 1447 ft | 149 kts | 350° |
| 2026-05-03 23:56 | -22.97135 | -43.13223 | 1231 ft | 148 kts | 347° |
| 2026-05-03 23:56 | -22.96180 | -43.13603 | 1111 ft | 146 kts | 325° |
| 2026-05-03 23:56 | -22.95394 | -43.14282 | 997 ft | 146 kts | 315° |
| 2026-05-03 23:56 | -22.94658 | -43.15031 | 724 ft | 145 kts | 312° |
| 2026-05-03 23:57 | -22.93904 | -43.15713 | 565 ft | 140 kts | 326° |
| 2026-05-03 23:57 | -22.93007 | -43.16087 | 360 ft | 139 kts | 348° |
| 2026-05-03 23:57 | -22.92069 | -43.16215 | 113 ft | 134 kts | 354° |
| 2026-05-03 23:57 | -22.91174 | -43.16275 | 19 ft | 115 kts | 356° |
| 2026-05-03 23:58 | -22.90757 | -43.16301 | 23 ft | 42 kts | 355° |
| 2026-05-03 23:58 | -22.90535 | -43.16316 | 22 ft | 19 kts | 353° |
| 2026-05-03 23:58 | -22.90492 | -43.16406 | 22 ft | 13 kts | 265° |
| 2026-05-03 23:58 | -22.90497 | -43.16505 | 21 ft | 13 kts | 266° |
| 2026-05-03 23:59 | -22.90511 | -43.16549 | 23 ft | 3 kts | 217° |
| 2026-05-03 23:59 | -22.90553 | -43.16554 | 22 ft | 10 kts | 180° |
| 2026-05-03 23:59 | -22.90608 | -43.16552 | 24 ft | 6 kts | 176° |
| 2026-05-03 23:59 | -22.90648 | -43.16549 | 24 ft | 7 kts | 176° |
| 2026-05-04 00:00 | -22.90721 | -43.16544 | 20 ft | 12 kts | 176° |
| 2026-05-04 00:00 | -22.90795 | -43.16540 | 20 ft | 7 kts | 179° |
| 2026-05-04 00:00 | -22.90842 | -43.16570 | 22 ft | 10 kts | 210° |
| 2026-05-04 00:00 | -22.90921 | -43.16565 | 20 ft | 13 kts | 177° |
| 2026-05-04 00:01 | -22.90994 | -43.16560 | 20 ft | 8 kts | 176° |
| 2026-05-04 00:01 | -22.91037 | -43.16553 | 20 ft | 4 kts | 160° |
| 2026-05-04 00:01 | -22.91072 | -43.16537 | 20 ft | 5 kts | 159° |
| 2026-05-04 00:01 | -22.91092 | -43.16534 | 20 ft | 1 kts | 189° |
| 2026-05-04 00:02 | -22.91099 | -43.16544 | 20 ft | 2 kts | 237° |
| 2026-05-04 00:02 | -22.91099 | -43.16553 | 20 ft | 1 kts | 272° |
| 2026-05-04 00:02 | -22.91098 | -43.16568 | 20 ft | 1 kts | 271° |
| 2026-05-04 00:02 | -22.91098 | -43.16578 | 20 ft | 0 kts | 269° |
| 2026-05-04 00:03 | -22.91099 | -43.16583 | 20 ft | 0 kts | 268° |
| 2026-05-04 00:03 | -22.91099 | -43.16591 | 20 ft | 0 kts | 267° |